Time;durP1;ratioP1;P1;durP2;ratioP2;P2;SDS_P1;SDS_P2;PMS_P1;PMS_P2;Temp;Humidity;BMP_temperature;BMP_pressure;BME280_temperature;BME280_humidity;BME280_pressure;Samples;Min_cycle;Max_cycle;Signal;HPM_P1;HPM_P2
2023/03/05 00:01:33;;;;;;;49.87;23.40;;;;;;;0.28;100.00;96466.81;5048671;28;20543;-79
2023/03/05 00:03:59;;;;;;;49.38;23.67;;;;;;;0.36;100.00;96462.00;5048422;28;20064;-80
2023/03/05 00:06:27;;;;;;;46.33;22.63;;;;;;;0.34;100.00;96463.84;5048431;28;20049;-79
2023/03/05 00:08:58;;;;;;;50.00;23.87;;;;;;;0.34;100.00;96456.94;5048784;28;20538;-79
2023/03/05 00:11:28;;;;;;;48.97;23.50;;;;;;;0.25;100.00;96459.22;5065664;28;20515;-80
2023/03/05 00:13:55;;;;;;;46.13;22.60;;;;;;;0.37;100.00;96461.06;5049459;28;20465;-79
2023/03/05 00:16:21;;;;;;;53.17;24.60;;;;;;;0.27;100.00;96458.22;5056274;28;20455;-80
2023/03/05 00:18:48;;;;;;;50.07;23.33;;;;;;;0.31;100.00;96459.69;5054668;28;20489;-80
2023/03/05 00:21:22;;;;;;;48.57;23.90;;;;;;;0.31;100.00;96461.44;5049982;28;20474;-79
2023/03/05 00:23:49;;;;;;;49.57;24.13;;;;;;;0.32;100.00;96458.75;5048167;28;20474;-80
2023/03/05 00:26:16;;;;;;;49.47;24.30;;;;;;;0.22;100.00;96458.47;5059816;28;20521;-79
2023/03/05 00:28:48;;;;;;;49.57;24.90;;;;;;;0.27;100.00;96454.78;5060046;28;21029;-79
2023/03/05 00:31:30;;;;;;;45.87;23.70;;;;;;;0.30;100.00;96454.59;5048512;28;20463;-79
2023/03/05 00:34:04;;;;;;;47.17;22.90;;;;;;;0.30;100.00;96449.41;5081629;28;20478;-79
2023/03/05 00:36:31;;;;;;;50.90;26.63;;;;;;;0.28;100.00;96449.53;5085763;28;21003;-79
2023/03/05 00:38:58;;;;;;;50.73;24.67;;;;;;;0.25;100.00;96441.13;5037169;28;20467;-79
2023/03/05 00:41:24;;;;;;;46.60;23.53;;;;;;;0.26;100.00;96447.94;5061993;28;20451;-79
2023/03/05 00:43:50;;;;;;;54.97;26.40;;;;;;;0.26;100.00;96440.19;5048528;28;20518;-79
2023/03/05 00:46:16;;;;;;;50.27;23.70;;;;;;;0.22;100.00;96436.94;5044789;28;20451;-79
2023/03/05 00:48:41;;;;;;;56.43;26.90;;;;;;;0.22;100.00;96436.94;5056176;28;20037;-79
2023/03/05 00:51:08;;;;;;;53.83;24.33;;;;;;;0.16;100.00;96435.53;5053280;28;20520;-79
2023/03/05 00:53:34;;;;;;;48.47;24.00;;;;;;;0.15;100.00;96438.25;5051826;28;20037;-79
2023/03/05 00:56:02;;;;;;;48.97;23.10;;;;;;;0.16;100.00;96443.31;5040735;28;20451;-79
2023/03/05 00:58:28;;;;;;;51.27;24.07;;;;;;;0.16;100.00;96443.31;5039145;28;20533;-79
2023/03/05 01:01:09;;;;;;;48.50;25.07;;;;;;;0.21;100.00;96425.78;5056083;28;20459;-79
2023/03/05 01:03:38;;;;;;;50.63;24.93;;;;;;;0.21;100.00;96432.72;5068224;28;20487;-79
2023/03/05 01:06:09;;;;;;;51.93;24.17;;;;;;;0.27;100.00;96434.94;5058251;28;20467;-80
2023/03/05 01:08:42;;;;;;;55.20;25.10;;;;;;;0.19;100.00;96431.97;5084321;28;20430;-80
2023/03/05 01:11:08;;;;;;;38.35;18.80;;;;;;;0.16;100.00;96422.63;5052591;28;20463;-79
2023/03/05 01:13:56;;;;;;;54.80;25.37;;;;;;;0.15;100.00;96427.91;5052126;28;20035;-80
2023/03/05 01:16:22;;;;;;;55.70;25.57;;;;;;;0.12;100.00;96428.91;5050182;28;20451;-79
2023/03/05 01:18:48;;;;;;;46.77;23.57;;;;;;;0.06;100.00;96431.84;5058732;28;20466;-79
2023/03/05 01:21:13;;;;;;;48.10;23.67;;;;;;;0.08;100.00;96419.66;5057605;28;20518;-79
2023/03/05 01:23:39;;;;;;;50.53;24.23;;;;;;;0.19;100.00;96419.03;5051936;28;20068;-80
2023/03/05 01:26:08;;;;;;;53.37;24.63;;;;;;;0.24;100.00;96417.00;5038253;28;20391;-79
2023/03/05 01:28:34;;;;;;;51.17;24.60;;;;;;;0.21;100.00;96415.44;5067179;28;20127;-79
2023/03/05 01:31:00;;;;;;;51.50;24.13;;;;;;;0.21;100.00;96418.03;5051387;28;20469;-79
2023/03/05 01:33:27;;;;;;;56.50;26.13;;;;;;;0.25;100.00;96412.66;5064292;28;20475;-79
2023/03/05 01:35:52;;;;;;;51.33;24.03;;;;;;;0.16;100.00;96401.09;5069125;28;20032;-80
2023/03/05 01:38:18;;;;;;;49.93;24.17;;;;;;;0.28;100.00;96409.91;5061540;28;20820;-79
2023/03/05 01:40:45;;;;;;;56.57;25.57;;;;;;;0.21;100.00;96407.66;5054706;28;20060;-79
2023/03/05 01:43:11;;;;;;;54.87;24.40;;;;;;;0.26;100.00;96399.63;5049117;28;20028;-79
2023/03/05 01:45:38;;;;;;;49.40;24.90;;;;;;;0.22;100.00;96395.56;5050346;28;20931;-79
2023/03/05 01:48:04;;;;;;;49.30;23.67;;;;;;;0.26;100.00;96396.22;5050546;28;20116;-79
2023/03/05 01:50:31;;;;;;;52.83;24.23;;;;;;;0.18;100.00;96394.91;5070037;28;20562;-79
2023/03/05 01:53:04;;;;;;;53.70;25.17;;;;;;;0.17;100.00;96390.69;5060757;28;20048;-79
2023/03/05 01:55:33;;;;;;;49.45;23.63;;;;;;;0.25;100.00;96394.56;5032690;28;20472;-78
2023/03/05 01:58:17;;;;;;;52.63;22.77;;;;;;;0.24;100.00;96383.38;5048930;28;20032;-77
2023/03/05 02:00:45;;;;;;;49.13;23.63;;;;;;;0.23;100.00;96382.56;5033174;28;21086;-77
2023/03/05 02:03:13;;;;;;;51.70;25.33;;;;;;;0.21;100.00;96380.97;5048142;28;20463;-77
2023/03/05 02:05:43;;;;;;;52.17;23.73;;;;;;;0.22;100.00;96380.88;5034428;28;20544;-77
2023/03/05 02:08:12;;;;;;;53.20;25.07;;;;;;;0.25;100.00;96379.88;5051378;28;20541;-78
2023/03/05 02:10:43;;;;;;;49.53;22.67;;;;;;;0.23;100.00;96373.94;5032869;28;20822;-78
2023/03/05 02:13:12;;;;;;;50.60;25.03;;;;;;;0.15;100.00;96376.19;5049595;28;20455;-77
2023/03/05 02:15:38;;;;;;;50.60;23.50;;;;;;;0.24;100.00;96367.88;5049737;28;20495;-77
2023/03/05 02:18:05;;;;;;;52.67;24.70;;;;;;;0.20;100.00;96367.22;5050573;28;20779;-77
2023/03/05 02:20:42;;;;;;;47.03;23.33;;;;;;;0.13;100.00;96371.06;5066595;28;20523;-77
2023/03/05 02:23:08;;;;;;;47.63;24.03;;;;;;;0.13;100.00;96363.31;5065157;28;21007;-78
2023/03/05 02:25:34;;;;;;;60.70;26.33;;;;;;;0.06;100.00;96362.03;5065801;28;20466;-78
2023/03/05 02:28:13;;;;;;;49.87;22.27;;;;;;;0.13;100.00;96358.16;5068788;28;20033;-79
2023/03/05 02:30:39;;;;;;;54.47;24.20;;;;;;;0.23;100.00;96361.88;5054357;28;20041;-78
2023/03/05 02:33:07;;;;;;;48.33;23.70;;;;;;;0.22;100.00;96362.78;5051934;28;20463;-78
2023/03/05 02:35:58;;;;;;;55.50;24.60;;;;;;;0.31;100.00;96360.56;5038811;28;20039;-78
2023/03/05 02:38:24;;;;;;;52.10;24.47;;;;;;;0.26;100.00;96354.84;5029847;28;20444;-78
2023/03/05 02:40:49;;;;;;;50.87;22.53;;;;;;;0.22;100.00;96347.25;5085080;28;20470;-78
2023/03/05 02:43:17;;;;;;;54.87;24.80;;;;;;;0.23;100.00;96353.25;5065303;28;20127;-78
2023/03/05 02:45:43;;;;;;;52.07;23.20;;;;;;;0.23;100.00;96348.09;5041209;28;20543;-78
2023/03/05 02:48:08;;;;;;;54.20;25.53;;;;;;;0.26;100.00;96339.31;5058755;28;20091;-78
2023/03/05 02:50:35;;;;;;;49.00;23.33;;;;;;;0.20;100.00;96337.91;5034479;28;20033;-78
2023/03/05 02:53:01;;;;;;;55.77;25.27;;;;;;;0.21;100.00;96337.84;5055676;28;20195;-78
2023/03/05 02:55:28;;;;;;;57.27;25.50;;;;;;;0.11;100.00;96331.56;5049463;28;20448;-78
2023/03/05 02:57:54;;;;;;;55.43;26.23;;;;;;;0.17;100.00;96340.72;5075322;28;20806;-78
2023/03/05 03:00:21;;;;;;;58.07;24.20;;;;;;;0.16;100.00;96333.88;5052136;28;20090;-79
2023/03/05 03:02:46;;;;;;;57.17;26.27;;;;;;;0.16;100.00;96332.09;5085314;28;20467;-78
2023/03/05 03:05:12;;;;;;;53.30;24.43;;;;;;;0.23;100.00;96330.84;5034667;28;20040;-78
2023/03/05 03:07:38;;;;;;;50.07;23.43;;;;;;;0.24;100.00;96326.50;5031285;28;20120;-78
2023/03/05 03:10:05;;;;;;;52.87;24.47;;;;;;;0.12;100.00;96327.22;5051066;28;20108;-79
2023/03/05 03:12:31;;;;;;;55.60;22.10;;;;;;;0.16;100.00;96323.53;5068109;28;20104;-78
2023/03/05 03:14:56;;;;;;;53.20;24.20;;;;;;;0.10;100.00;96329.06;5048481;28;20538;-78
2023/03/05 03:17:27;;;;;;;52.53;23.93;;;;;;;0.12;100.00;96327.22;5080125;28;20032;-78
2023/03/05 03:19:53;;;;;;;57.97;25.07;;;;;;;0.08;100.00;96316.25;5035899;28;20041;-77
2023/03/05 03:22:18;;;;;;;52.87;24.97;;;;;;;0.18;100.00;96317.34;5050545;28;20455;-78
2023/03/05 03:24:44;;;;;;;54.80;23.57;;;;;;;0.08;100.00;96318.81;5051631;28;21632;-78
2023/03/05 03:27:10;;;;;;;54.43;25.53;;;;;;;0.12;100.00;96315.13;5049992;28;20102;-79
2023/03/05 03:29:36;;;;;;;60.50;25.17;;;;;;;0.11;100.00;96313.47;5051044;28;20040;-78
2023/03/05 03:32:02;;;;;;;55.53;24.27;;;;;;;0.19;100.00;96313.00;5034328;28;20114;-78
2023/03/05 03:34:27;;;;;;;56.83;25.27;;;;;;;0.13;100.00;96309.00;5071029;28;20490;-78
2023/03/05 03:36:53;;;;;;;59.97;26.37;;;;;;;0.13;100.00;96308.19;5053541;28;20040;-78
2023/03/05 03:39:20;;;;;;;62.43;26.00;;;;;;;0.13;100.00;96303.03;5058417;28;20041;-78
2023/03/05 03:41:51;;;;;;;56.40;24.47;;;;;;;0.06;100.00;96299.16;5046076;28;20041;-78
2023/03/05 03:44:17;;;;;;;55.80;24.13;;;;;;;0.12;100.00;96297.03;5048301;28;20487;-78
2023/03/05 03:46:45;;;;;;;59.23;26.50;;;;;;;0.13;100.00;96300.44;5062038;28;21100;-79
2023/03/05 03:49:19;;;;;;;50.47;24.17;;;;;;;0.11;100.00;96295.38;5049627;28;20464;-78
2023/03/05 03:51:46;;;;;;;54.80;24.83;;;;;;;0.08;100.00;96295.56;5066925;28;20456;-78
2023/03/05 03:54:13;;;;;;;64.50;25.03;;;;;;;0.13;100.00;96284.91;5083582;28;20451;-79
2023/03/05 03:56:39;;;;;;;55.40;24.63;;;;;;;0.13;100.00;96284.91;5049799;28;20529;-78
2023/03/05 03:59:04;;;;;;;48.63;25.10;;;;;;;0.11;100.00;96279.84;5053337;28;20443;-78
2023/03/05 04:01:30;;;;;;;57.83;23.93;;;;;;;0.14;100.00;96273.66;5037513;28;20426;-79
2023/03/05 04:04:06;;;;;;;58.03;25.90;;;;;;;0.11;100.00;96279.84;4957082;28;20041;-78
2023/03/05 04:06:32;;;;;;;50.33;23.57;;;;;;;0.07;100.00;96282.69;4932171;28;20041;-78
2023/03/05 04:08:58;;;;;;;56.17;24.37;;;;;;;0.15;100.00;96270.16;4971795;28;20519;-79
2023/03/05 04:11:24;;;;;;;51.17;24.07;;;;;;;0.12;100.00;96270.34;4944182;28;20830;-78
2023/03/05 04:13:51;;;;;;;55.47;25.03;;;;;;;0.21;100.00;96268.00;4936385;28;20029;-78
2023/03/05 04:16:19;;;;;;;51.40;23.50;;;;;;;0.16;100.00;96269.22;4992622;28;20033;-78
2023/03/05 04:18:45;;;;;;;53.53;23.63;;;;;;;0.15;100.00;96270.16;5000366;28;20475;-78
2023/03/05 04:21:11;;;;;;;50.77;23.97;;;;;;;0.06;100.00;96266.38;4988065;28;20490;-77
2023/03/05 04:23:37;;;;;;;49.97;23.70;;;;;;;0.19;100.00;96256.09;4985656;28;20032;-79
2023/03/05 04:26:03;;;;;;;60.83;26.60;;;;;;;0.09;100.00;96267.94;5007474;28;20045;-78
2023/03/05 04:28:29;;;;;;;54.50;25.73;;;;;;;0.02;100.00;96258.91;5017438;28;20463;-78
2023/03/05 04:30:55;;;;;;;59.07;27.17;;;;;;;0.03;100.00;96256.22;5011232;28;20132;-78
2023/03/05 04:33:21;;;;;;;52.83;24.07;;;;;;;0.12;100.00;96255.66;5013769;28;20067;-78
2023/03/05 04:35:46;;;;;;;51.47;22.93;;;;;;;0.15;100.00;96258.03;4996214;28;20021;-78
2023/03/05 04:38:12;;;;;;;49.53;25.17;;;;;;;0.20;100.00;96248.25;5018395;28;20115;-78
2023/03/05 04:40:38;;;;;;;47.77;23.30;;;;;;;0.15;100.00;96249.47;5013474;28;20033;-78
2023/03/05 04:43:04;;;;;;;54.63;25.03;;;;;;;0.12;100.00;96253.06;5013382;28;20031;-78
2023/03/05 04:45:31;;;;;;;52.10;22.60;;;;;;;0.16;100.00;96246.78;5026444;28;20087;-78
2023/03/05 04:47:56;;;;;;;53.10;23.33;;;;;;;0.20;100.00;96250.84;5052945;28;20482;-78
2023/03/05 04:50:23;;;;;;;53.20;23.57;;;;;;;0.12;100.00;96245.31;5052461;28;20459;-78
2023/03/05 04:52:50;;;;;;;47.97;21.70;;;;;;;0.20;100.00;96248.25;5066729;28;20045;-78
2023/03/05 04:55:17;;;;;;;50.47;23.13;;;;;;;0.20;100.00;96247.41;5075492;28;20828;-78
2023/03/05 04:57:43;;;;;;;51.30;22.53;;;;;;;0.17;100.00;96242.44;5050373;28;21044;-79
2023/03/05 05:00:13;;;;;;;56.53;25.47;;;;;;;0.17;100.00;96247.63;5053550;28;20450;-78
2023/03/05 05:02:43;;;;;;;52.17;22.87;;;;;;;0.21;100.00;96236.97;5048249;28;21083;-78
2023/03/05 05:05:25;;;;;;;48.10;22.73;;;;;;;0.17;100.00;96247.63;5050142;28;21082;-78
2023/03/05 05:07:55;;;;;;;50.30;23.70;;;;;;;0.22;100.00;96248.97;5049504;28;20479;-78
2023/03/05 05:10:22;;;;;;;47.07;23.40;;;;;;;0.22;100.00;96238.63;5049958;28;20533;-79
2023/03/05 05:12:50;;;;;;;46.67;22.57;;;;;;;0.28;100.00;96245.19;5047779;28;20517;-78
2023/03/05 05:15:16;;;;;;;46.90;23.03;;;;;;;0.29;100.00;96243.44;5027577;28;22057;-78
2023/03/05 05:17:41;;;;;;;56.90;23.17;;;;;;;0.30;100.00;96239.91;5025320;28;20569;-78
2023/03/05 05:20:10;;;;;;;53.60;23.43;;;;;;;0.28;100.00;96229.66;5027331;28;20076;-78
2023/03/05 05:22:36;;;;;;;53.33;23.40;;;;;;;0.34;100.00;96234.47;5039432;28;20048;-78
2023/03/05 05:25:04;;;;;;;52.57;22.60;;;;;;;0.35;100.00;96230.94;5024408;28;20517;-78
2023/03/05 05:27:30;;;;;;;55.10;24.03;;;;;;;0.33;100.00;96235.38;5024941;28;20376;-78
2023/03/05 05:29:55;;;;;;;51.67;22.90;;;;;;;0.38;100.00;96235.09;5025220;28;20467;-78
2023/03/05 05:32:23;;;;;;;50.30;23.87;;;;;;;0.26;100.00;96233.28;5041615;28;20064;-78
2023/03/05 05:34:54;;;;;;;50.40;22.90;;;;;;;0.35;100.00;96236.13;5040820;28;20033;-78
2023/03/05 05:37:20;;;;;;;54.13;23.73;;;;;;;0.34;100.00;96237.06;5025001;28;20513;-78
2023/03/05 05:39:48;;;;;;;55.83;22.13;;;;;;;0.25;100.00;96234.22;5022179;28;20972;-78
2023/03/05 05:42:16;;;;;;;50.67;22.00;;;;;;;0.36;100.00;96231.75;5035271;28;20041;-78
2023/03/05 05:44:42;;;;;;;51.90;23.33;;;;;;;0.38;100.00;96233.34;5068236;28;20878;-78
2023/03/05 05:47:08;;;;;;;52.80;23.33;;;;;;;0.29;100.00;96235.66;5064429;28;21052;-77
2023/03/05 05:49:33;;;;;;;56.73;24.23;;;;;;;0.30;100.00;96232.16;5080647;28;20475;-78
2023/03/05 05:51:59;;;;;;;62.40;25.43;;;;;;;0.26;100.00;96234.09;5029602;28;20032;-78
2023/03/05 05:54:25;;;;;;;48.37;23.63;;;;;;;0.32;100.00;96240.66;5062797;28;20079;-78
2023/03/05 05:56:50;;;;;;;48.67;22.87;;;;;;;0.32;100.00;96236.31;5028520;28;20029;-78
2023/03/05 05:59:16;;;;;;;54.23;24.53;;;;;;;0.38;100.00;96245.44;5047487;28;20032;-78
2023/03/05 06:01:42;;;;;;;54.30;23.53;;;;;;;0.28;100.00;96240.00;5051820;28;20565;-78
2023/03/05 06:04:07;;;;;;;53.90;23.27;;;;;;;0.26;100.00;96238.44;5078863;28;20036;-78
2023/03/05 06:06:36;;;;;;;51.17;23.60;;;;;;;0.30;100.00;96245.91;5039394;28;20044;-77
2023/03/05 06:09:02;;;;;;;56.03;24.60;;;;;;;0.39;100.00;96239.34;5079661;28;20029;-78
2023/03/05 06:11:28;;;;;;;48.43;23.47;;;;;;;0.40;100.00;96243.56;5079223;28;20653;-78
2023/03/05 06:14:06;;;;;;;54.20;24.27;;;;;;;0.38;100.00;96241.09;5078918;28;20467;-78
2023/03/05 06:16:32;;;;;;;54.53;24.97;;;;;;;0.38;100.00;96240.28;5079191;28;20545;-77
2023/03/05 06:18:58;;;;;;;51.63;24.83;;;;;;;0.33;100.00;96231.97;5046963;28;20460;-77
2023/03/05 06:21:25;;;;;;;55.70;24.60;;;;;;;0.33;100.00;96239.72;5034060;28;20032;-77
2023/03/05 06:23:51;;;;;;;44.47;22.37;;;;;;;0.36;100.00;96236.94;5062381;28;21984;-77
2023/03/05 06:26:20;;;;;;;54.83;24.73;;;;;;;0.32;100.00;96227.72;5061922;28;20482;-78
2023/03/05 06:28:46;;;;;;;54.27;26.07;;;;;;;0.33;100.00;96237.13;5056824;28;20186;-78
2023/03/05 06:31:18;;;;;;;61.97;26.10;;;;;;;0.33;100.00;96232.78;5062808;28;20865;-78
2023/03/05 06:33:44;;;;;;;55.83;24.27;;;;;;;0.50;100.00;96223.94;5055842;28;20036;-79
2023/03/05 06:36:15;;;;;;;55.30;24.67;;;;;;;0.56;100.00;96227.91;5061149;28;20471;-78
2023/03/05 06:38:42;;;;;;;51.93;23.97;;;;;;;0.41;100.00;96229.72;5061620;28;20462;-78
2023/03/05 06:41:10;;;;;;;54.47;24.77;;;;;;;0.52;100.00;96232.47;5032274;28;20506;-78
2023/03/05 06:43:38;;;;;;;56.67;26.13;;;;;;;0.49;100.00;96224.88;4997981;28;21348;-77
2023/03/05 06:46:07;;;;;;;53.83;27.50;;;;;;;0.53;100.00;96228.09;5010994;28;20824;-78
2023/03/05 06:48:33;;;;;;;53.57;25.77;;;;;;;0.57;100.00;96225.25;5014628;28;20546;-78
2023/03/05 06:51:02;;;;;;;55.77;24.47;;;;;;;0.47;100.00;96224.19;4993653;28;20465;-78
2023/03/05 06:53:28;;;;;;;50.77;23.43;;;;;;;0.43;100.00;96222.69;5013750;28;20048;-78
2023/03/05 06:55:54;;;;;;;50.90;24.90;;;;;;;0.46;100.00;96223.31;5012190;28;20464;-78
2023/03/05 06:58:19;;;;;;;53.60;25.50;;;;;;;0.48;100.00;96225.81;4997246;28;20028;-78
2023/03/05 07:00:46;;;;;;;58.23;26.97;;;;;;;0.47;100.00;96226.75;5016735;28;21074;-78
2023/03/05 07:03:12;;;;;;;50.60;23.70;;;;;;;0.57;100.00;96230.41;5026371;28;20071;-78
2023/03/05 07:05:39;;;;;;;59.33;24.10;;;;;;;0.62;100.00;96225.75;5045475;28;20466;-78
2023/03/05 07:08:06;;;;;;;54.27;25.20;;;;;;;0.58;100.00;96226.91;4997756;28;20475;-78
2023/03/05 07:10:36;;;;;;;51.07;24.20;;;;;;;0.55;100.00;96218.50;5048466;28;21720;-78
2023/03/05 07:13:01;;;;;;;59.90;25.40;;;;;;;0.51;100.00;96220.47;5062586;28;20536;-78
2023/03/05 07:15:27;;;;;;;55.30;26.70;;;;;;;0.52;100.00;96224.69;5078910;28;20476;-79
2023/03/05 07:17:53;;;;;;;50.33;23.13;;;;;;;0.52;100.00;96222.09;5077388;28;20029;-78
2023/03/05 07:20:28;;;;;;;48.97;22.50;;;;;;;0.53;100.00;96217.75;5045676;28;20040;-79
2023/03/05 07:22:54;;;;;;;45.47;23.07;;;;;;;0.51;100.00;96223.03;5044432;28;20083;-78
2023/03/05 07:25:20;;;;;;;51.37;24.77;;;;;;;0.60;100.00;96219.84;5040202;28;21909;-78
2023/03/05 07:27:47;;;;;;;55.60;25.13;;;;;;;0.67;100.00;96228.03;4992642;28;20305;-78
2023/03/05 07:30:14;;;;;;;50.63;24.43;;;;;;;0.62;100.00;96218.00;5011106;28;20072;-78
2023/03/05 07:32:40;;;;;;;54.90;24.23;;;;;;;0.62;100.00;96218.00;5024000;28;20447;-78
2023/03/05 07:35:06;;;;;;;55.63;24.47;;;;;;;0.72;100.00;96217.41;4978827;28;20482;-78
2023/03/05 07:37:32;;;;;;;57.03;26.30;;;;;;;0.69;100.00;96218.44;4981769;28;20026;-78
2023/03/05 07:39:58;;;;;;;49.10;24.40;;;;;;;0.70;100.00;96214.91;4980561;28;20467;-78
2023/03/05 07:42:24;;;;;;;50.30;24.37;;;;;;;0.77;100.00;96210.16;4979515;28;21960;-78
2023/03/05 07:44:57;;;;;;;51.83;25.10;;;;;;;0.78;100.00;96211.84;4983954;28;20036;-78
2023/03/05 07:47:23;;;;;;;57.60;25.70;;;;;;;0.89;100.00;96215.38;4980429;28;20057;-78
2023/03/05 07:49:50;;;;;;;59.03;26.10;;;;;;;0.75;100.00;96215.47;5009820;28;20489;-78
2023/03/05 07:52:15;;;;;;;48.07;25.17;;;;;;;0.89;100.00;96217.97;4995312;28;21010;-78
2023/03/05 07:54:41;;;;;;;56.63;25.83;;;;;;;0.87;100.00;96211.22;5036891;28;20471;-78
2023/03/05 07:57:07;;;;;;;54.50;24.90;;;;;;;0.92;100.00;96210.00;5039909;28;20013;-78
2023/03/05 07:59:34;;;;;;;52.83;24.60;;;;;;;0.98;100.00;96211.38;4994963;28;20036;-78
2023/03/05 08:02:00;;;;;;;53.23;23.73;;;;;;;0.93;100.00;96216.00;5001911;28;20463;-78
2023/03/05 08:04:26;;;;;;;51.47;25.63;;;;;;;0.88;100.00;96212.91;5015884;28;20462;-79
2023/03/05 08:06:52;;;;;;;50.77;24.93;;;;;;;0.96;100.00;96208.03;5065150;28;20041;-79
2023/03/05 08:09:18;;;;;;;53.27;25.17;;;;;;;1.03;100.00;96209.28;5079508;28;20446;-79
2023/03/05 08:11:44;;;;;;;55.73;24.30;;;;;;;1.07;100.00;96207.31;5062737;28;20059;-79
2023/03/05 08:14:12;;;;;;;52.53;24.17;;;;;;;1.09;100.00;96202.88;5059759;28;20468;-79
2023/03/05 08:16:38;;;;;;;53.70;23.97;;;;;;;1.12;100.00;96206.09;5071810;28;20406;-79
2023/03/05 08:19:05;;;;;;;54.17;25.80;;;;;;;1.23;100.00;96210.56;5024233;28;20490;-78
2023/03/05 08:21:33;;;;;;;54.93;23.47;;;;;;;1.27;100.00;96200.81;5000738;28;20969;-78
2023/03/05 08:24:04;;;;;;;45.27;21.10;;;;;;;1.21;100.00;96204.66;5001223;28;20538;-78
2023/03/05 08:26:31;;;;;;;49.37;23.37;;;;;;;1.22;100.00;96193.38;5004096;28;20472;-78
2023/03/05 08:28:57;;;;;;;45.50;23.17;;;;;;;1.30;100.00;96192.84;4992510;28;20490;-78
2023/03/05 08:31:25;;;;;;;55.17;23.27;;;;;;;1.36;100.00;96192.44;4978961;28;20517;-78
2023/03/05 08:33:53;;;;;;;50.20;23.70;;;;;;;1.32;100.00;96196.16;4975358;28;20494;-79
2023/03/05 08:36:19;;;;;;;52.80;23.57;;;;;;;1.35;100.00;96196.78;4944882;28;20463;-79
2023/03/05 08:38:47;;;;;;;48.33;22.87;;;;;;;1.40;100.00;96204.25;4945837;28;20462;-79
2023/03/05 08:41:19;;;;;;;51.20;23.60;;;;;;;1.46;100.00;96205.59;4944305;28;20516;-78
2023/03/05 08:43:45;;;;;;;55.33;22.97;;;;;;;1.48;100.00;96196.78;4952193;28;21629;-78
2023/03/05 08:46:12;;;;;;;47.67;22.00;;;;;;;1.46;100.00;96196.06;4955370;28;20478;-79
2023/03/05 08:48:39;;;;;;;44.50;20.90;;;;;;;1.59;100.00;96190.88;5020652;28;20059;-79
2023/03/05 08:51:13;;;;;;;47.50;23.97;;;;;;;1.64;100.00;96191.38;5045086;28;20483;-79
2023/03/05 08:53:39;;;;;;;53.03;25.10;;;;;;;1.62;100.00;96191.50;5033519;28;20476;-79
2023/03/05 08:56:06;;;;;;;54.30;25.10;;;;;;;1.61;100.00;96187.25;5035320;28;20471;-78
2023/03/05 08:58:32;;;;;;;42.13;22.07;;;;;;;1.56;100.00;96191.06;5027332;28;20525;-79
2023/03/05 09:01:06;;;;;;;44.97;23.57;;;;;;;1.59;100.00;96183.91;5052305;28;20472;-79
2023/03/05 09:03:32;;;;;;;43.43;23.43;;;;;;;1.58;100.00;96184.88;5022627;28;20486;-78
2023/03/05 09:06:00;;;;;;;45.83;21.47;;;;;;;1.58;100.00;96187.47;5014894;28;20546;-79
2023/03/05 09:08:35;;;;;;;43.40;20.70;;;;;;;1.63;100.00;96185.34;5016953;28;20069;-79
2023/03/05 09:11:05;;;;;;;40.47;22.40;;;;;;;1.72;100.00;96186.50;5015142;28;20530;-79
2023/03/05 09:13:32;;;;;;;51.80;25.63;;;;;;;1.75;100.00;96183.69;5012876;28;20475;-79
2023/03/05 09:16:01;;;;;;;45.73;24.00;;;;;;;1.77;100.00;96179.22;5013491;28;20530;-79
2023/03/05 09:18:28;;;;;;;46.10;20.80;;;;;;;1.78;100.00;96178.31;5028388;28;20463;-78
2023/03/05 09:21:02;;;;;;;51.77;24.37;;;;;;;1.84;100.00;96177.84;5055131;28;20476;-78
2023/03/05 09:23:28;;;;;;;48.23;22.57;;;;;;;1.78;100.00;96167.13;5021095;28;20483;-79
2023/03/05 09:25:54;;;;;;;42.93;21.60;;;;;;;1.85;100.00;96168.34;5043004;28;20443;-80
2023/03/05 09:28:20;;;;;;;39.87;20.13;;;;;;;1.91;100.00;96169.66;5038266;28;20471;-81
2023/03/05 09:30:46;;;;;;;46.33;22.53;;;;;;;1.97;100.00;96164.03;4989159;28;20044;-80
2023/03/05 09:33:12;;;;;;;43.23;22.60;;;;;;;1.94;100.00;96167.66;5026927;28;20080;-79
2023/03/05 09:35:39;;;;;;;46.50;23.23;;;;;;;1.88;100.00;96163.75;5028888;28;20475;-79
2023/03/05 09:38:05;;;;;;;46.40;22.83;;;;;;;1.95;100.00;96168.53;5005103;28;20150;-79
2023/03/05 09:40:54;;;;;;;43.63;20.53;;;;;;;2.05;100.00;96157.38;5028029;28;20498;-80
2023/03/05 09:44:01;;;;;;;47.43;23.07;;;;;;;2.16;100.00;96158.38;5047459;28;20036;-79
2023/03/05 09:46:43;;;;;;;38.13;18.90;;;;;;;2.14;100.00;96155.88;5011532;28;20630;-80
2023/03/05 09:49:47;;;;;;;42.87;19.03;;;;;;;2.18;100.00;96153.91;4972011;28;20534;-80
2023/03/05 09:52:20;;;;;;;36.85;18.92;;;;;;;2.25;100.00;96152.53;4933173;28;20092;-80
2023/03/05 09:54:56;;;;;;;34.20;20.70;;;;;;;2.37;100.00;96143.84;4972309;28;20053;-81
2023/03/05 09:57:37;;;;;;;42.33;19.43;;;;;;;2.28;100.00;96149.69;4940645;28;20487;-78
2023/03/05 10:00:28;;;;;;;38.07;19.90;;;;;;;2.21;100.00;96148.50;4990651;28;20044;-80
2023/03/05 10:02:58;;;;;;;34.93;17.90;;;;;;;2.36;100.00;96139.63;4995943;28;20136;-78
2023/03/05 10:05:45;;;;;;;37.67;18.43;;;;;;;2.38;100.00;96139.50;4983955;28;21065;-78
2023/03/05 10:08:15;;;;;;;36.37;17.40;;;;;;;2.53;100.00;96141.81;4982826;28;20032;-79
2023/03/05 10:10:50;;;;;;;35.13;17.87;;;;;;;2.64;100.00;96135.81;4939770;28;20044;-79
2023/03/05 10:13:23;;;;;;;34.57;16.77;;;;;;;2.60;100.00;96135.22;4936263;28;20033;-79
2023/03/05 10:16:01;;;;;;;30.20;16.30;;;;;;;2.65;100.00;96131.44;4949871;28;20032;-80
2023/03/05 10:18:26;;;;;;;34.63;16.53;;;;;;;2.82;100.00;96128.47;4965481;28;20107;-79
2023/03/05 10:21:02;;;;;;;28.07;15.00;;;;;;;2.64;100.00;96127.22;5021090;28;20163;-79
2023/03/05 10:23:38;;;;;;;26.37;13.87;;;;;;;2.75;100.00;96128.09;5002807;28;20037;-79
2023/03/05 10:26:55;;;;;;;30.33;13.60;;;;;;;2.75;100.00;96125.50;5000407;28;20040;-79
2023/03/05 10:29:44;;;;;;;28.53;13.77;;;;;;;2.75;100.00;96112.50;4985496;28;20447;-79
2023/03/05 10:32:45;;;;;;;25.90;13.13;;;;;;;2.80;100.00;96115.56;5036765;28;20037;-79
2023/03/05 10:35:19;;;;;;;27.87;14.90;;;;;;;2.68;100.00;96113.88;5008850;28;20082;-80
2023/03/05 10:37:59;;;;;;;27.07;13.23;;;;;;;2.75;100.00;96102.13;5019823;28;20156;-80
2023/03/05 10:40:40;;;;;;;24.87;12.13;;;;;;;2.73;100.00;96106.59;5041142;28;20029;-81
2023/03/05 10:43:31;;;;;;;21.97;12.20;;;;;;;2.68;100.00;96098.28;5082305;28;20310;-79
2023/03/05 10:45:59;;;;;;;30.13;12.63;;;;;;;2.77;100.00;96102.81;5066937;28;20501;-80
2023/03/05 10:48:30;;;;;;;21.57;11.93;;;;;;;2.74;100.00;96097.84;5052838;28;20051;-81
2023/03/05 10:51:03;;;;;;;29.03;14.67;;;;;;;2.84;100.00;96088.41;5050074;28;20033;-80
2023/03/05 10:53:58;;;;;;;22.92;11.95;;;;;;;2.84;100.00;96095.38;5051305;28;20055;-80
2023/03/05 10:56:30;;;;;;;23.90;13.37;;;;;;;2.67;100.00;96093.22;5049307;28;20033;-80
2023/03/05 10:58:59;;;;;;;33.17;14.10;;;;;;;2.63;100.00;96090.03;5083881;28;20041;-81
2023/03/05 11:01:30;;;;;;;28.77;14.03;;;;;;;2.61;100.00;96089.31;5048219;28;20041;-81
2023/03/05 11:04:23;;;;;;;21.70;12.30;;;;;;;2.67;100.00;96078.47;5048274;28;20048;-79
2023/03/05 11:06:56;;;;;;;25.88;13.82;;;;;;;2.69;100.00;96086.16;5061518;28;20036;-80
2023/03/05 11:09:28;;;;;;;24.50;12.23;;;;;;;2.56;100.00;96083.66;5041250;28;20044;-81
2023/03/05 11:12:15;;;;;;;28.43;13.23;;;;;;;2.50;100.00;96076.31;5047906;28;20036;-80
2023/03/05 11:14:46;;;;;;;21.77;12.10;;;;;;;2.55;100.00;96076.81;5054745;28;20039;-84
2023/03/05 11:17:46;;;;;;;21.40;11.97;;;;;;;2.62;100.00;96075.41;5054558;28;20021;-88
2023/03/05 11:20:31;;;;;;;21.53;10.93;;;;;;;2.63;100.00;96068.44;5058601;28;20025;-81
2023/03/05 11:23:25;;;;;;;28.30;12.77;;;;;;;2.56;100.00;96068.06;5054118;28;20045;-81
2023/03/05 11:26:03;;;;;;;23.70;12.60;;;;;;;2.60;100.00;96067.72;5048461;28;20028;-79
2023/03/05 11:28:54;;;;;;;27.40;13.10;;;;;;;2.55;100.00;96063.84;5033282;28;20033;-83